createdAt,value
2018-07-11T00:00:05.091Z,0
2018-07-11T00:10:05.070Z,0
2018-07-11T00:21:32.736Z,0
2018-07-11T00:31:33.851Z,0
2018-07-11T00:41:32.877Z,0
2018-07-11T00:51:32.848Z,0
2018-07-11T01:01:32.833Z,0
2018-07-11T01:11:32.949Z,0
2018-07-11T01:23:00.863Z,0
2018-07-11T01:33:00.997Z,0
2018-07-11T01:43:00.931Z,0
2018-07-11T01:53:00.920Z,0
2018-07-11T02:03:01.000Z,0
2018-07-11T02:13:01.009Z,0
2018-07-11T02:23:00.965Z,0
2018-07-11T02:33:01.251Z,0
2018-07-11T02:43:01.066Z,0
2018-07-11T02:53:00.986Z,0
2018-07-11T03:03:00.936Z,0
2018-07-11T03:13:01.353Z,0
2018-07-11T03:23:00.950Z,5
2018-07-11T03:33:00.986Z,5
2018-07-11T03:43:01.016Z,15
2018-07-11T03:53:01.009Z,15
2018-07-11T04:03:01.085Z,25
2018-07-11T04:13:01.008Z,30
2018-07-11T04:23:01.162Z,35
2018-07-11T04:33:01.057Z,40
2018-07-11T04:43:10.948Z,50
2018-07-11T04:53:12.555Z,50
2018-07-11T05:07:19.737Z,70
2018-07-11T05:13:01.110Z,85
2018-07-11T05:23:01.082Z,100
2018-07-11T05:33:01.140Z,100
2018-07-11T05:43:01.144Z,120
2018-07-11T05:53:01.089Z,125
2018-07-11T06:03:01.120Z,125
2018-07-11T06:13:01.251Z,170
2018-07-11T06:23:01.266Z,150
2018-07-11T06:33:01.232Z,180
2018-07-11T06:43:01.359Z,265
2018-07-11T06:53:01.235Z,285
2018-07-11T07:03:01.212Z,340
2018-07-11T07:13:01.241Z,280
2018-07-11T07:23:01.220Z,280
2018-07-11T07:33:01.306Z,250
2018-07-11T07:43:01.160Z,175
2018-07-11T07:53:01.303Z,210
2018-07-11T08:03:01.179Z,280
2018-07-11T08:13:01.182Z,265
2018-07-11T08:23:01.217Z,340
2018-07-11T08:33:01.169Z,235
2018-07-11T08:43:01.180Z,140
2018-07-11T08:53:01.295Z,125
2018-07-11T09:03:01.259Z,45
2018-07-11T09:13:01.321Z,80
2018-07-11T09:23:01.302Z,180
2018-07-11T09:33:01.973Z,220
2018-07-11T09:43:01.164Z,305
2018-07-11T09:53:01.268Z,265
2018-07-11T10:03:01.199Z,155
2018-07-11T10:13:01.312Z,140
2018-07-11T10:23:01.689Z,155
2018-07-11T10:33:01.222Z,175
2018-07-11T10:43:01.239Z,165
2018-07-11T10:53:01.466Z,335
2018-07-11T11:03:01.244Z,90
2018-07-11T11:13:01.342Z,80
2018-07-11T11:23:01.265Z,25
2018-07-11T11:33:01.242Z,85
2018-07-11T11:43:02.394Z,100
2018-07-11T11:53:01.253Z,180
2018-07-11T12:03:01.313Z,105
2018-07-11T12:13:01.333Z,130
2018-07-11T12:23:01.242Z,105
2018-07-11T12:33:01.259Z,165
2018-07-11T12:43:01.264Z,120
2018-07-11T12:53:01.313Z,35
2018-07-11T13:03:01.909Z,70
2018-07-11T13:13:01.240Z,50
2018-07-11T13:23:01.317Z,75
2018-07-11T13:33:01.243Z,60
2018-07-11T13:43:01.298Z,260
2018-07-11T13:53:01.418Z,305
2018-07-11T14:03:01.336Z,255
2018-07-11T14:13:01.273Z,215
2018-07-11T14:23:01.289Z,290
2018-07-11T14:33:01.629Z,285
2018-07-11T14:43:01.323Z,230
2018-07-11T14:53:01.344Z,235
2018-07-11T15:03:01.616Z,160
2018-07-11T15:13:01.560Z,150
2018-07-11T15:23:01.717Z,195
2018-07-11T15:33:01.515Z,80
2018-07-11T15:43:01.320Z,65
2018-07-11T15:53:01.340Z,125
2018-07-11T16:03:01.623Z,90
2018-07-11T16:13:01.333Z,90
2018-07-11T16:23:01.661Z,135
2018-07-11T16:33:02.775Z,85
2018-07-11T16:43:01.388Z,140
2018-07-11T16:53:01.336Z,155
2018-07-11T17:03:01.470Z,60
2018-07-11T17:13:01.408Z,45
2018-07-11T17:23:01.352Z,20
2018-07-11T17:33:01.453Z,20
2018-07-11T17:43:03.599Z,40
2018-07-11T17:53:01.622Z,70
2018-07-11T18:03:01.365Z,70
2018-07-11T18:13:01.854Z,55
2018-07-11T18:23:01.337Z,85
2018-07-11T18:33:01.322Z,70
2018-07-11T18:43:01.698Z,45
2018-07-11T18:53:01.392Z,35
2018-07-11T19:03:01.487Z,25
2018-07-11T19:13:01.461Z,20
2018-07-11T19:23:01.398Z,10
2018-07-11T19:33:01.381Z,0
2018-07-11T19:43:01.434Z,0
2018-07-11T19:53:01.429Z,0
2018-07-11T20:03:01.512Z,0
2018-07-11T20:13:01.441Z,0
2018-07-11T20:23:01.644Z,0
2018-07-11T20:33:01.862Z,0
2018-07-11T20:43:01.434Z,0
2018-07-11T20:53:01.532Z,0
2018-07-11T21:03:01.520Z,0
2018-07-11T21:13:01.332Z,0
2018-07-11T21:23:01.638Z,0
2018-07-11T21:33:02.560Z,0
2018-07-11T21:43:01.535Z,0
2018-07-11T21:53:01.489Z,0
2018-07-11T22:03:01.376Z,0
2018-07-11T22:13:13.672Z,0
2018-07-11T22:23:01.314Z,0
2018-07-11T22:33:01.529Z,0
2018-07-11T22:43:01.347Z,0
2018-07-11T22:53:01.369Z,0
2018-07-11T23:03:02.095Z,0
2018-07-11T23:13:01.373Z,0
2018-07-11T23:23:01.441Z,0
2018-07-11T23:33:01.464Z,0
2018-07-11T23:43:01.372Z,0
2018-07-11T23:53:01.504Z,0
